Time;durP1;ratioP1;P1;durP2;ratioP2;P2;SDS_P1;SDS_P2;PMS_P1;PMS_P2;Temp;Humidity;BMP_temperature;BMP_pressure;BME280_temperature;BME280_humidity;BME280_pressure;Samples;Min_cycle;Max_cycle;Signal;HPM_P1;HPM_P2
2022/07/31 00:00:05;;;;;;;9.07;8.18;;;;;;;20.76;60.18;101527.16;4987137;28;20046;-79
2022/07/31 00:02:31;;;;;;;8.75;7.75;;;;;;;20.71;60.54;101514.03;5002817;28;20468;-79
2022/07/31 00:04:56;;;;;;;10.38;7.75;;;;;;;20.71;60.47;101513.16;4989373;28;20026;-78
2022/07/31 00:07:22;;;;;;;8.82;7.90;;;;;;;20.66;60.70;101520.81;5000686;28;20061;-78
2022/07/31 00:09:47;;;;;;;10.45;8.15;;;;;;;20.58;61.62;101510.63;4989668;28;20030;-78
2022/07/31 00:12:12;;;;;;;10.00;8.02;;;;;;;20.56;61.27;101512.56;5000934;28;20640;-78
2022/07/31 00:14:37;;;;;;;8.30;7.47;;;;;;;20.58;61.70;101510.63;4989188;28;20030;-78
2022/07/31 00:17:03;;;;;;;9.15;7.93;;;;;;;20.58;61.63;101510.63;4992337;28;20022;-78
2022/07/31 00:19:28;;;;;;;13.82;7.75;;;;;;;20.57;62.67;101508.91;4987586;28;20181;-78
2022/07/31 00:21:53;;;;;;;8.65;7.45;;;;;;;20.59;62.56;101504.22;5008305;28;20044;-78
2022/07/31 00:24:19;;;;;;;8.70;7.10;;;;;;;20.55;63.07;101505.44;4991196;28;20022;-78
2022/07/31 00:26:44;;;;;;;8.65;6.68;;;;;;;20.56;62.75;101499.91;4985715;28;20033;-79
2022/07/31 00:29:09;;;;;;;10.20;7.45;;;;;;;20.53;63.42;101496.63;4978672;28;21215;-78
2022/07/31 00:31:35;;;;;;;8.07;6.55;;;;;;;20.54;62.89;101498.34;4980810;28;20023;-79
2022/07/31 00:34:00;;;;;;;7.63;6.88;;;;;;;20.57;62.04;101500.78;4983300;28;20396;-79
2022/07/31 00:36:26;;;;;;;9.85;7.90;;;;;;;20.56;62.80;101499.06;4975144;28;20073;-78
2022/07/31 00:38:51;;;;;;;11.40;8.10;;;;;;;20.55;61.46;101500.03;4970446;28;20031;-78
2022/07/31 00:41:16;;;;;;;8.93;7.97;;;;;;;20.57;61.40;101500.78;4991887;28;20027;-79
2022/07/31 00:43:42;;;;;;;11.25;8.55;;;;;;;20.58;61.77;101516.03;4984401;28;20392;-79
2022/07/31 00:46:07;;;;;;;12.20;8.25;;;;;;;20.52;61.34;101517.38;4974657;28;20027;-79
2022/07/31 00:48:33;;;;;;;11.93;8.40;;;;;;;20.49;62.18;101522.19;4984153;28;20042;-79
2022/07/31 00:50:58;;;;;;;8.95;7.88;;;;;;;20.49;61.52;101522.19;4986847;28;20085;-79
2022/07/31 00:53:24;;;;;;;10.57;8.07;;;;;;;20.44;61.15;101510.84;4985658;28;20034;-79
2022/07/31 00:55:49;;;;;;;11.82;7.60;;;;;;;20.39;61.19;101509.38;4994630;28;20038;-78
2022/07/31 00:58:15;;;;;;;8.48;7.40;;;;;;;20.38;61.33;101510.38;4993473;28;20395;-79
2022/07/31 01:00:40;;;;;;;10.43;7.50;;;;;;;20.34;60.75;101514.31;4981508;28;20101;-79
2022/07/31 01:03:05;;;;;;;9.70;7.80;;;;;;;20.36;60.61;101506.94;4980692;28;20022;-79
2022/07/31 01:05:31;;;;;;;9.85;7.80;;;;;;;20.33;60.64;101509.03;4970726;28;20227;-79
2022/07/31 01:07:56;;;;;;;9.13;6.88;;;;;;;20.35;60.60;101509.75;4975734;28;20034;-79
2022/07/31 01:10:34;;;;;;;9.52;6.68;;;;;;;20.32;60.66;101500.06;4984518;28;20084;-79
2022/07/31 01:13:07;;;;;;;9.95;7.40;;;;;;;20.33;60.37;101506.34;4982026;28;20104;-78
2022/07/31 01:15:34;;;;;;;10.17;7.40;;;;;;;20.31;60.31;101505.56;4987288;28;20033;-79
2022/07/31 01:18:00;;;;;;;8.32;7.38;;;;;;;20.29;60.25;101504.84;4983776;28;20115;-79
2022/07/31 01:20:27;;;;;;;8.60;6.55;;;;;;;20.24;60.28;101510.63;4982096;28;20452;-79
2022/07/31 01:23:24;;;;;;;9.98;6.93;;;;;;;20.19;59.93;101503.88;4988280;28;20050;-79
2022/07/31 01:26:01;;;;;;;6.95;6.22;;;;;;;20.15;60.26;101508.69;4997024;28;20109;-78
2022/07/31 01:28:52;;;;;;;7.75;6.95;;;;;;;20.16;59.46;101510.41;4983585;28;20512;-79
2022/07/31 01:31:22;;;;;;;7.18;6.25;;;;;;;20.04;60.31;101501.44;4983716;28;20029;-79
2022/07/31 01:33:52;;;;;;;8.85;6.40;;;;;;;20.04;60.17;101501.44;4990031;28;20053;-79
2022/07/31 01:36:24;;;;;;;8.18;6.57;;;;;;;20.01;60.62;101504.38;4979091;28;20104;-79
2022/07/31 01:38:52;;;;;;;10.07;6.90;;;;;;;19.97;60.97;101497.50;4981749;28;20073;-79
2022/07/31 01:41:23;;;;;;;10.63;6.78;;;;;;;19.94;61.12;101499.56;4987044;28;20030;-78
2022/07/31 01:43:53;;;;;;;11.18;7.13;;;;;;;19.86;60.99;101476.75;4991330;28;20076;-79
2022/07/31 01:46:20;;;;;;;7.05;6.20;;;;;;;19.84;61.32;101488.66;4987118;28;20121;-79
2022/07/31 01:48:47;;;;;;;9.30;6.80;;;;;;;19.82;61.14;101486.09;4972913;28;20023;-79
2022/07/31 01:51:14;;;;;;;8.82;6.70;;;;;;;19.81;61.96;101489.75;4984857;28;20496;-78
2022/07/31 01:53:42;;;;;;;8.50;7.13;;;;;;;19.78;61.70;101491.88;4978305;28;20093;-79
2022/07/31 01:56:08;;;;;;;12.35;8.02;;;;;;;19.81;61.35;101481.66;4987550;28;20033;-79
2022/07/31 01:58:42;;;;;;;10.93;8.18;;;;;;;19.84;61.62;101500.31;4980088;28;20030;-78
2022/07/31 02:01:09;;;;;;;10.88;8.35;;;;;;;19.74;61.80;101493.09;4980898;28;20050;-79
2022/07/31 02:03:37;;;;;;;15.20;8.55;;;;;;;19.74;62.03;101502.03;4979038;28;20038;-79
2022/07/31 02:06:02;;;;;;;10.25;8.02;;;;;;;19.76;62.21;101497.38;4981193;28;20487;-79
2022/07/31 02:08:29;;;;;;;10.25;7.38;;;;;;;19.72;62.49;101498.59;4989523;28;20072;-79
2022/07/31 02:10:56;;;;;;;11.18;7.80;;;;;;;19.71;62.40;101498.72;4988472;28;20269;-78
2022/07/31 02:13:23;;;;;;;11.15;8.15;;;;;;;19.70;62.56;101494.31;4989161;28;20022;-78
2022/07/31 02:15:50;;;;;;;9.63;8.05;;;;;;;19.71;62.27;101496.88;4983183;28;20356;-78
2022/07/31 02:18:17;;;;;;;14.65;7.90;;;;;;;19.68;61.89;101493.56;4979133;28;20363;-79
2022/07/31 02:20:44;;;;;;;10.18;8.60;;;;;;;19.62;62.48;101489.50;4982847;28;20022;-77
2022/07/31 02:23:10;;;;;;;11.02;7.85;;;;;;;19.56;62.54;101489.94;4986687;28;20062;-79
2022/07/31 02:25:38;;;;;;;11.07;7.47;;;;;;;19.53;62.65;101490.19;4980003;28;20023;-78
2022/07/31 02:28:14;;;;;;;11.20;7.65;;;;;;;19.52;62.70;101488.47;4989897;28;20031;-78
2022/07/31 02:30:42;;;;;;;10.23;7.78;;;;;;;19.51;62.51;101492.16;4985096;28;20308;-78
2022/07/31 02:33:11;;;;;;;11.90;7.78;;;;;;;19.49;62.83;101494.13;4983620;28;20049;-78
2022/07/31 02:35:38;;;;;;;12.18;7.82;;;;;;;19.41;63.40;101500.13;4973439;28;20069;-79
2022/07/31 02:38:04;;;;;;;15.40;7.93;;;;;;;19.37;63.72;101496.78;4984444;28;20031;-78
2022/07/31 02:40:30;;;;;;;11.98;8.20;;;;;;;19.33;64.41;101500.69;4995546;28;20036;-79
2022/07/31 02:42:56;;;;;;;14.20;8.38;;;;;;;19.26;65.00;101499.44;4982459;28;20102;-78
2022/07/31 02:45:22;;;;;;;9.32;7.63;;;;;;;19.22;65.15;101497.97;4985128;28;20242;-78
2022/07/31 02:47:47;;;;;;;9.57;8.15;;;;;;;19.19;65.24;101498.22;4992365;28;20035;-78
2022/07/31 02:50:14;;;;;;;11.07;7.72;;;;;;;19.19;65.07;101492.81;4990352;28;20026;-78
2022/07/31 02:52:40;;;;;;;13.50;8.02;;;;;;;19.14;65.03;101482.38;5003775;28;20026;-78
2022/07/31 02:55:06;;;;;;;11.88;8.90;;;;;;;19.16;65.83;101495.75;4975198;28;20114;-78
2022/07/31 02:57:32;;;;;;;9.82;7.97;;;;;;;19.16;66.02;101490.34;4986047;28;20085;-78
2022/07/31 02:59:57;;;;;;;14.68;8.80;;;;;;;19.18;65.96;101491.06;4989122;28;20054;-78
2022/07/31 03:02:22;;;;;;;13.45;8.80;;;;;;;19.19;65.91;101486.53;4998022;28;20387;-79
2022/07/31 03:04:48;;;;;;;12.70;8.60;;;;;;;19.19;66.58;101487.44;5011814;28;20022;-79
2022/07/31 03:07:16;;;;;;;10.88;8.27;;;;;;;19.22;66.37;101479.06;4994833;28;20031;-78
2022/07/31 03:09:41;;;;;;;11.07;8.48;;;;;;;19.26;65.84;101482.41;4987972;28;20036;-78
2022/07/31 03:12:07;;;;;;;15.40;8.07;;;;;;;19.26;66.06;101477.00;4990553;28;20391;-78
2022/07/31 03:14:34;;;;;;;11.75;8.65;;;;;;;19.21;65.83;101474.66;4988694;28;20038;-78
2022/07/31 03:17:00;;;;;;;11.63;8.90;;;;;;;19.21;65.30;101473.81;4989150;28;20023;-78
2022/07/31 03:19:27;;;;;;;10.43;9.18;;;;;;;19.17;65.66;101479.44;4979047;28;20487;-77
2022/07/31 03:21:53;;;;;;;11.85;9.60;;;;;;;19.12;65.51;101461.88;4988561;28;20030;-78
2022/07/31 03:24:19;;;;;;;12.80;10.48;;;;;;;19.12;65.50;101470.84;4977320;28;20546;-79
2022/07/31 03:26:45;;;;;;;14.65;11.10;;;;;;;19.12;65.25;101468.13;4989354;28;20025;-78
2022/07/31 03:29:10;;;;;;;12.13;10.15;;;;;;;19.12;65.53;101461.88;4973945;28;20122;-79
2022/07/31 03:31:35;;;;;;;13.70;10.48;;;;;;;19.11;65.41;101466.44;4987134;28;20026;-79
2022/07/31 03:34:01;;;;;;;13.15;11.30;;;;;;;19.06;65.40;101465.94;4985073;28;20066;-79
2022/07/31 03:36:27;;;;;;;14.05;11.20;;;;;;;19.05;65.41;101472.28;4980593;28;20022;-78
2022/07/31 03:38:53;;;;;;;15.07;11.10;;;;;;;18.98;65.29;101470.16;4989771;28;20529;-79
2022/07/31 03:41:18;;;;;;;13.05;10.77;;;;;;;18.88;65.71;101468.16;4988412;28;20031;-78
2022/07/31 03:43:45;;;;;;;13.68;10.38;;;;;;;18.85;65.45;101475.63;4970095;28;20089;-79
2022/07/31 03:46:12;;;;;;;13.35;11.77;;;;;;;18.71;65.93;101471.28;4987340;28;20034;-79
2022/07/31 03:48:37;;;;;;;15.38;11.27;;;;;;;18.64;65.42;101472.66;4979438;28;20514;-79
2022/07/31 03:51:03;;;;;;;12.82;11.38;;;;;;;18.62;65.75;101474.63;4990629;28;20014;-79
2022/07/31 03:53:30;;;;;;;12.77;10.90;;;;;;;18.62;65.77;101471.94;4981336;28;20030;-78
2022/07/31 03:55:56;;;;;;;13.80;11.07;;;;;;;18.61;65.92;101470.22;4983176;28;20431;-78
2022/07/31 03:58:22;;;;;;;14.60;11.25;;;;;;;18.58;66.54;101463.22;4978725;28;20058;-79
2022/07/31 04:00:48;;;;;;;15.52;11.07;;;;;;;18.63;66.03;101462.88;4993927;28;20038;-79
2022/07/31 04:03:14;;;;;;;14.90;10.27;;;;;;;18.67;65.69;101458.97;5010659;28;20050;-79
2022/07/31 04:05:40;;;;;;;12.82;10.63;;;;;;;18.64;66.11;101467.28;4999761;28;20038;-79
2022/07/31 04:08:07;;;;;;;13.13;10.52;;;;;;;18.62;66.13;101466.56;4986710;28;20034;-79
2022/07/31 04:10:34;;;;;;;13.93;10.57;;;;;;;18.58;66.38;101468.59;4998487;28;20021;-78
2022/07/31 04:13:00;;;;;;;10.23;9.20;;;;;;;18.52;66.17;101469.09;4997941;28;20383;-79
2022/07/31 04:15:26;;;;;;;11.98;10.25;;;;;;;18.54;66.56;101477.03;5001899;28;20034;-78
2022/07/31 04:17:51;;;;;;;11.82;10.00;;;;;;;18.54;66.79;101477.91;4988230;28;20136;-79
2022/07/31 04:20:17;;;;;;;11.68;9.32;;;;;;;18.48;67.24;101469.44;4989870;28;20018;-78
2022/07/31 04:22:42;;;;;;;10.45;9.27;;;;;;;18.45;66.92;101466.94;5008830;28;20209;-79
2022/07/31 04:25:08;;;;;;;12.93;9.50;;;;;;;18.44;67.23;101473.31;5005061;28;20022;-79
2022/07/31 04:27:36;;;;;;;11.18;8.88;;;;;;;18.41;67.60;101479.78;4983005;28;20466;-79
2022/07/31 04:30:02;;;;;;;9.30;7.82;;;;;;;18.39;67.79;101469.13;4989979;28;20538;-79
2022/07/31 04:32:28;;;;;;;11.57;8.32;;;;;;;18.40;68.82;101473.53;4998962;28;20042;-78
2022/07/31 04:34:53;;;;;;;9.70;8.27;;;;;;;18.38;68.94;101478.16;4992130;28;20022;-79
2022/07/31 04:37:18;;;;;;;10.27;7.28;;;;;;;18.42;69.05;101482.34;4990532;28;20404;-78
2022/07/31 04:39:44;;;;;;;11.38;7.63;;;;;;;18.44;69.28;101484.97;4993211;28;20111;-78
2022/07/31 04:42:09;;;;;;;7.80;6.80;;;;;;;18.50;69.27;101486.34;4993132;28;20124;-78
2022/07/31 04:44:34;;;;;;;10.55;7.75;;;;;;;18.50;69.68;101486.34;4995164;28;20030;-80
2022/07/31 04:47:02;;;;;;;11.20;7.10;;;;;;;18.53;70.23;101486.13;4992297;28;20067;-79
2022/07/31 04:49:27;;;;;;;8.52;6.63;;;;;;;18.53;70.06;101486.97;4983740;28;20072;-80
2022/07/31 04:51:52;;;;;;;10.00;7.10;;;;;;;18.55;70.04;101490.41;4993612;28;20034;-79
2022/07/31 04:54:18;;;;;;;9.35;6.60;;;;;;;18.55;70.29;101479.63;4996240;28;20030;-79
2022/07/31 04:56:44;;;;;;;7.88;5.88;;;;;;;18.57;70.05;101479.53;4992323;28;20026;-78
2022/07/31 04:59:12;;;;;;;8.10;6.40;;;;;;;18.60;71.09;101485.56;4988438;28;20423;-78
2022/07/31 05:01:39;;;;;;;7.78;6.03;;;;;;;18.57;71.08;101479.53;4996659;28;20026;-79
2022/07/31 05:04:05;;;;;;;7.43;5.70;;;;;;;18.57;71.23;101479.53;5002227;28;20076;-78
2022/07/31 05:06:45;;;;;;;7.47;5.40;;;;;;;18.65;70.34;101482.50;4998983;28;20129;-78
2022/07/31 05:09:12;;;;;;;6.78;5.30;;;;;;;18.64;71.43;101483.47;4988013;28;20039;-79
2022/07/31 05:11:39;;;;;;;8.63;5.00;;;;;;;18.70;70.75;101474.97;5000061;28;20053;-78
2022/07/31 05:14:05;;;;;;;7.53;5.10;;;;;;;18.72;71.14;101470.28;4989114;28;20030;-78
2022/07/31 05:16:31;;;;;;;7.72;4.55;;;;;;;18.71;71.14;101476.66;4997903;28;20038;-79
2022/07/31 05:18:58;;;;;;;7.72;5.03;;;;;;;18.69;71.03;101467.81;4988522;28;20034;-78
2022/07/31 05:21:25;;;;;;;6.55;5.00;;;;;;;18.67;71.10;101476.00;4995755;28;20022;-78
2022/07/31 05:23:52;;;;;;;6.88;4.88;;;;;;;18.73;71.87;101479.25;4998781;28;20057;-79
2022/07/31 05:26:19;;;;;;;5.93;4.40;;;;;;;18.81;72.02;101480.41;4988218;28;20054;-79
2022/07/31 05:28:45;;;;;;;7.05;4.50;;;;;;;18.83;71.25;101470.34;4985202;28;20027;-79
2022/07/31 05:31:11;;;;;;;7.65;4.63;;;;;;;18.79;71.41;101458.06;4991048;28;20030;-77
2022/07/31 05:33:37;;;;;;;5.35;4.40;;;;;;;18.76;71.94;101458.31;5001319;28;20030;-79
2022/07/31 05:36:04;;;;;;;7.15;3.80;;;;;;;18.65;72.41;101451.00;4997706;28;20033;-79
2022/07/31 05:38:29;;;;;;;6.68;4.47;;;;;;;18.66;72.50;101454.56;4988769;28;20030;-79
2022/07/31 05:40:55;;;;;;;5.63;4.32;;;;;;;18.66;73.20;101452.72;4987225;28;20072;-78
2022/07/31 05:43:20;;;;;;;6.95;4.20;;;;;;;18.70;72.63;101447.13;5001476;28;20117;-78
2022/07/31 05:45:46;;;;;;;5.38;3.95;;;;;;;18.62;73.97;101462.00;4994182;28;20026;-78
2022/07/31 05:48:15;;;;;;;7.07;4.20;;;;;;;18.48;75.85;101458.66;4988929;28;20034;-79
2022/07/31 05:50:42;;;;;;;6.85;4.03;;;;;;;18.39;78.18;101452.97;4971644;28;20031;-78
2022/07/31 05:53:10;;;;;;;6.43;4.50;;;;;;;18.35;78.46;101451.47;5000886;28;20037;-78
2022/07/31 05:55:36;;;;;;;7.65;4.50;;;;;;;18.29;79.52;101456.44;4987141;28;20034;-78
2022/07/31 05:58:01;;;;;;;8.25;4.70;;;;;;;18.17;80.93;101460.88;4986141;28;20655;-80
2022/07/31 06:00:28;;;;;;;6.75;4.10;;;;;;;18.07;80.92;101467.94;4979271;28;20445;-79
2022/07/31 06:02:55;;;;;;;9.27;4.38;;;;;;;18.09;81.38;101465.97;5005427;28;20542;-78
2022/07/31 06:05:21;;;;;;;8.10;4.00;;;;;;;18.16;80.38;101464.56;4989240;28;20026;-79
2022/07/31 06:07:46;;;;;;;5.85;4.10;;;;;;;18.22;80.23;101466.78;4975581;28;20642;-78
2022/07/31 06:10:11;;;;;;;5.68;4.03;;;;;;;18.31;79.95;101459.84;4989131;28;20030;-79
2022/07/31 06:12:36;;;;;;;5.28;4.15;;;;;;;18.42;79.48;101459.94;4977140;28;20027;-79
2022/07/31 06:15:02;;;;;;;6.60;4.28;;;;;;;18.51;78.92;101461.94;4977925;28;20042;-79
2022/07/31 06:17:27;;;;;;;5.43;3.90;;;;;;;18.53;79.41;101462.72;4980608;28;20404;-79
2022/07/31 06:19:53;;;;;;;6.07;4.30;;;;;;;18.63;77.30;101465.56;4999781;28;20092;-76
2022/07/31 06:22:18;;;;;;;5.65;3.95;;;;;;;18.74;77.59;101460.28;4997144;28;20021;-79
2022/07/31 06:24:43;;;;;;;6.38;4.18;;;;;;;18.83;77.65;101467.66;4988055;28;20484;-79
2022/07/31 06:27:09;;;;;;;4.45;3.53;;;;;;;18.91;76.61;101472.47;4981460;28;20038;-79
2022/07/31 06:29:34;;;;;;;5.43;4.15;;;;;;;18.96;76.84;101464.03;4978032;28;20400;-78
2022/07/31 06:31:59;;;;;;;7.18;4.05;;;;;;;18.95;76.87;101456.94;4987791;28;20033;-79
2022/07/31 06:34:25;;;;;;;4.95;3.97;;;;;;;18.95;76.40;101459.63;4979034;28;20030;-79
2022/07/31 06:36:50;;;;;;;6.43;3.75;;;;;;;18.94;76.34;101464.16;4973669;28;20030;-78
2022/07/31 06:39:16;;;;;;;6.70;3.65;;;;;;;18.95;76.79;101462.31;4985846;28;20034;-79
2022/07/31 06:41:48;;;;;;;6.45;3.60;;;;;;;18.96;76.98;101459.50;4989661;28;20038;-79
2022/07/31 06:44:14;;;;;;;5.85;3.90;;;;;;;18.94;76.16;101457.91;4984339;28;20030;-79
2022/07/31 06:46:40;;;;;;;4.85;3.83;;;;;;;18.91;76.12;101456.28;4978158;28;20056;-79
2022/07/31 06:49:05;;;;;;;6.28;4.18;;;;;;;18.96;76.19;101455.94;4984777;28;20026;-78
2022/07/31 06:51:31;;;;;;;5.97;4.38;;;;;;;19.01;76.33;101451.03;4975063;28;20113;-78
2022/07/31 06:53:57;;;;;;;5.07;4.13;;;;;;;19.00;76.72;101452.88;4984101;28;20045;-79
2022/07/31 06:56:22;;;;;;;5.63;3.75;;;;;;;19.04;75.75;101458.91;4991296;28;20046;-78
2022/07/31 06:58:48;;;;;;;5.90;4.07;;;;;;;19.03;76.71;101454.50;4985916;28;20026;-78
2022/07/31 07:01:13;;;;;;;3.97;3.60;;;;;;;19.11;76.10;101457.47;4985160;28;20101;-78
2022/07/31 07:03:39;;;;;;;6.38;4.00;;;;;;;19.14;75.92;101460.81;4984852;28;20422;-78
2022/07/31 07:06:04;;;;;;;4.95;3.90;;;;;;;19.22;75.74;101457.47;4998718;28;20109;-79
2022/07/31 07:08:30;;;;;;;7.80;4.50;;;;;;;19.28;75.23;101448.91;4990258;28;20034;-79
2022/07/31 07:10:55;;;;;;;5.18;4.30;;;;;;;19.37;74.64;101452.75;4986005;28;20441;-79
2022/07/31 07:13:20;;;;;;;5.20;4.50;;;;;;;19.45;74.56;101441.34;4978216;28;20292;-79
2022/07/31 07:15:46;;;;;;;6.30;4.55;;;;;;;19.48;74.78;101450.06;4991048;28;20093;-78
2022/07/31 07:18:11;;;;;;;6.05;4.20;;;;;;;19.57;74.26;101448.47;4989205;28;20068;-77
2022/07/31 07:20:37;;;;;;;7.65;4.70;;;;;;;19.62;74.20;101449.00;4981418;28;20030;-78
2022/07/31 07:23:03;;;;;;;6.35;4.65;;;;;;;19.74;73.94;101456.13;4997395;28;20026;-76
2022/07/31 07:25:28;;;;;;;7.40;4.22;;;;;;;19.92;73.01;101447.53;4988654;28;20384;-79
2022/07/31 07:27:55;;;;;;;8.05;4.60;;;;;;;20.05;72.60;101446.41;4988718;28;20082;-79
2022/07/31 07:30:21;;;;;;;6.20;4.90;;;;;;;20.26;71.67;101440.22;4985359;28;20023;-79
2022/07/31 07:32:46;;;;;;;7.50;5.13;;;;;;;20.51;71.47;101450.75;4972388;28;20399;-78
2022/07/31 07:35:12;;;;;;;11.70;5.35;;;;;;;20.78;70.33;101446.75;4999701;28;20078;-78
2022/07/31 07:37:40;;;;;;;6.13;5.03;;;;;;;21.12;69.12;101447.44;4985295;28;20545;-79
2022/07/31 07:40:07;;;;;;;7.20;5.43;;;;;;;21.58;67.98;101451.59;4976065;28;20029;-78
2022/07/31 07:42:32;;;;;;;6.25;5.38;;;;;;;22.53;65.47;101446.66;4987344;28;20145;-78
2022/07/31 07:44:57;;;;;;;7.70;5.72;;;;;;;22.89;62.61;101449.66;4976891;28;20117;-78
2022/07/31 07:47:23;;;;;;;8.23;6.28;;;;;;;22.76;62.41;101447.22;4983492;28;20125;-78
2022/07/31 07:49:48;;;;;;;8.13;6.18;;;;;;;22.42;63.16;101443.22;4983293;28;20122;-78
2022/07/31 07:52:14;;;;;;;7.47;5.95;;;;;;;22.33;63.48;101443.06;4988337;28;20041;-78
2022/07/31 07:54:39;;;;;;;7.72;6.10;;;;;;;22.19;63.99;101445.28;4989828;28;20038;-78
2022/07/31 07:57:05;;;;;;;9.73;6.43;;;;;;;22.03;64.64;101446.66;4992183;28;20026;-78
2022/07/31 07:59:30;;;;;;;7.18;6.13;;;;;;;21.83;65.26;101450.28;5009675;28;20053;-78
2022/07/31 08:01:55;;;;;;;7.45;5.95;;;;;;;21.69;65.77;101443.38;4995854;28;20950;-78
2022/07/31 08:04:21;;;;;;;13.52;6.97;;;;;;;21.69;66.25;101451.50;4977536;28;20307;-77
2022/07/31 08:06:46;;;;;;;6.97;5.32;;;;;;;21.81;66.20;101438.72;4984944;28;20026;-79
2022/07/31 08:09:11;;;;;;;7.35;6.40;;;;;;;21.79;65.73;101435.31;4993011;28;20022;-80
2022/07/31 08:11:37;;;;;;;7.65;6.88;;;;;;;21.84;65.85;101443.88;4989532;28;20023;-80
2022/07/31 08:14:02;;;;;;;8.98;6.97;;;;;;;21.88;65.85;101429.06;5003298;28;20381;-78
2022/07/31 08:16:27;;;;;;;8.73;6.40;;;;;;;22.13;65.64;101434.00;4987626;28;20030;-80
2022/07/31 08:18:53;;;;;;;6.30;5.70;;;;;;;22.43;64.02;101436.78;4986879;28;20030;-80
2022/07/31 08:21:19;;;;;;;6.80;5.40;;;;;;;22.72;64.03;101429.53;4989169;28;20433;-79
2022/07/31 08:23:44;;;;;;;7.50;5.95;;;;;;;22.94;63.35;101431.09;4990202;28;20076;-80
2022/07/31 08:26:10;;;;;;;8.05;5.80;;;;;;;23.01;62.40;101434.13;4988901;28;20038;-80
2022/07/31 08:28:35;;;;;;;9.93;5.75;;;;;;;23.25;62.28;101439.94;4989416;28;20023;-78
2022/07/31 08:31:01;;;;;;;7.18;5.47;;;;;;;23.60;60.21;101438.41;5001872;28;20448;-79
2022/07/31 08:33:26;;;;;;;7.35;5.72;;;;;;;23.91;60.56;101424.56;4981048;28;20046;-79
2022/07/31 08:35:52;;;;;;;6.00;5.38;;;;;;;24.15;58.11;101426.75;4983443;28;20533;-78
2022/07/31 08:38:18;;;;;;;6.95;5.40;;;;;;;24.06;58.63;101433.94;4977220;28;20060;-79
2022/07/31 08:40:44;;;;;;;8.65;6.00;;;;;;;24.22;58.32;101427.84;4969130;28;20022;-79
2022/07/31 08:43:13;;;;;;;8.00;5.07;;;;;;;24.48;57.88;101428.84;4979953;28;20483;-79
2022/07/31 08:45:42;;;;;;;6.25;5.25;;;;;;;24.57;57.47;101435.22;4988311;28;20023;-79
2022/07/31 08:48:08;;;;;;;5.32;4.80;;;;;;;24.51;57.21;101427.69;4988484;28;20031;-79
2022/07/31 08:50:38;;;;;;;8.23;5.30;;;;;;;24.41;57.64;101433.19;4980319;28;20027;-79
2022/07/31 08:53:04;;;;;;;6.93;5.35;;;;;;;24.13;58.03;101429.63;4984587;28;20066;-78
2022/07/31 08:55:31;;;;;;;7.30;5.22;;;;;;;23.88;59.49;101431.19;4968763;28;20038;-79
2022/07/31 08:57:57;;;;;;;7.70;5.03;;;;;;;23.63;59.92;101435.41;4979359;28;20033;-79
2022/07/31 09:00:22;;;;;;;6.10;4.68;;;;;;;23.40;59.78;101436.75;4969396;28;20514;-79
2022/07/31 09:02:48;;;;;;;5.00;4.50;;;;;;;23.33;60.76;101441.94;4979488;28;20073;-79
2022/07/31 09:05:15;;;;;;;6.55;5.30;;;;;;;23.30;61.11;101439.50;4979481;28;20034;-78
2022/07/31 09:07:41;;;;;;;8.15;5.18;;;;;;;23.29;61.46;101437.81;4982641;28;20035;-78
2022/07/31 09:10:18;;;;;;;7.70;5.60;;;;;;;23.24;61.08;101438.25;4987166;28;20022;-79
2022/07/31 09:12:43;;;;;;;6.85;5.18;;;;;;;23.22;61.81;101434.78;4979472;28;20325;-79
2022/07/31 09:15:23;;;;;;;6.22;4.80;;;;;;;23.22;61.86;101423.09;4984333;28;20038;-79
2022/07/31 09:17:49;;;;;;;7.10;5.40;;;;;;;23.17;61.82;101426.25;4982550;28;20023;-78
2022/07/31 09:20:24;;;;;;;5.15;4.68;;;;;;;23.31;62.18;101427.63;4984589;28;20064;-79
2022/07/31 09:23:08;;;;;;;5.45;4.95;;;;;;;23.46;62.02;101414.44;4985077;28;20104;-79
2022/07/31 09:25:33;;;;;;;8.05;5.43;;;;;;;23.41;61.84;101427.59;4985621;28;20065;-80
2022/07/31 09:28:04;;;;;;;5.97;5.10;;;;;;;23.39;61.99;101421.47;4983707;28;20070;-81
2022/07/31 09:30:30;;;;;;;5.47;4.50;;;;;;;23.43;61.32;101423.75;4980820;28;20026;-80
2022/07/31 09:33:14;;;;;;;6.07;4.57;;;;;;;23.66;61.56;101418.84;4970546;28;20372;-81
2022/07/31 09:35:50;;;;;;;7.82;4.85;;;;;;;24.02;60.23;101418.94;4977856;28;20136;-80
2022/07/31 09:38:17;;;;;;;5.15;4.57;;;;;;;24.36;58.68;101411.00;4986126;28;20026;-80
2022/07/31 09:40:43;;;;;;;5.05;4.25;;;;;;;24.75;57.99;101411.59;4978823;28;20100;-80
2022/07/31 09:43:23;;;;;;;7.22;4.55;;;;;;;24.95;57.54;101416.84;4974029;28;20031;-80
2022/07/31 09:46:02;;;;;;;5.07;4.40;;;;;;;25.05;57.02;101428.50;4975469;28;20137;-80
2022/07/31 09:48:31;;;;;;;4.53;4.00;;;;;;;24.83;56.93;101425.28;4981674;28;20034;-80
2022/07/31 09:51:00;;;;;;;6.75;4.30;;;;;;;24.51;57.70;101417.66;4979359;28;20089;-80
2022/07/31 09:53:27;;;;;;;6.80;4.32;;;;;;;24.44;58.55;101418.41;4984721;28;20117;-79
2022/07/31 09:55:54;;;;;;;6.68;4.63;;;;;;;24.62;58.01;101410.25;4976673;28;20596;-79
2022/07/31 09:58:21;;;;;;;6.07;4.60;;;;;;;24.84;57.24;101413.38;4992061;28;20460;-79
2022/07/31 10:00:50;;;;;;;6.20;4.10;;;;;;;25.27;56.46;101410.81;4983454;28;20042;-78
2022/07/31 10:03:17;;;;;;;4.82;4.30;;;;;;;25.75;55.07;101412.09;4994896;28;20038;-78
2022/07/31 10:05:44;;;;;;;7.10;5.18;;;;;;;26.38;53.57;101411.69;4977581;28;20113;-78
2022/07/31 10:08:12;;;;;;;5.53;4.28;;;;;;;26.67;51.44;101418.56;4993832;28;20457;-76
2022/07/31 10:10:38;;;;;;;6.95;4.63;;;;;;;26.63;51.91;101414.47;4980373;28;20022;-78
2022/07/31 10:13:08;;;;;;;7.13;4.65;;;;;;;26.61;51.48;101424.72;4970581;28;20330;-78
2022/07/31 10:15:36;;;;;;;4.50;3.70;;;;;;;26.29;51.87;101416.28;4981122;28;20021;-79
2022/07/31 10:18:07;;;;;;;5.68;4.10;;;;;;;26.22;52.55;101412.50;5001276;28;20034;-78
2022/07/31 10:20:33;;;;;;;5.00;3.70;;;;;;;25.76;52.95;101419.28;4987418;28;20029;-78
2022/07/31 10:23:09;;;;;;;8.75;4.13;;;;;;;25.26;54.57;101415.41;4988742;28;20064;-79
2022/07/31 10:25:43;;;;;;;5.55;3.90;;;;;;;25.07;56.15;101410.13;4980150;28;20112;-77
2022/07/31 10:28:09;;;;;;;5.07;3.92;;;;;;;25.09;55.64;101403.56;4973195;28;20452;-78
2022/07/31 10:30:35;;;;;;;5.57;4.18;;;;;;;25.32;54.78;101412.03;4970169;28;20029;-78
2022/07/31 10:33:02;;;;;;;5.32;4.10;;;;;;;25.21;55.25;101406.88;4976975;28;20033;-77
2022/07/31 10:35:28;;;;;;;4.15;3.75;;;;;;;24.80;55.78;101400.22;4972271;28;20042;-79
2022/07/31 10:38:14;;;;;;;6.07;4.30;;;;;;;24.62;56.55;101402.09;4981729;28;20506;-79
2022/07/31 10:40:48;;;;;;;6.35;4.95;;;;;;;24.46;57.57;101408.25;4974586;28;20031;-78
2022/07/31 10:43:28;;;;;;;4.97;4.47;;;;;;;24.55;57.48;101410.03;4971566;28;20407;-78
2022/07/31 10:45:55;;;;;;;4.38;3.88;;;;;;;24.62;57.34;101407.53;4981663;28;20018;-78
2022/07/31 10:48:22;;;;;;;4.57;3.78;;;;;;;24.89;55.94;101395.69;4988413;28;20030;-78
2022/07/31 10:50:59;;;;;;;4.45;3.40;;;;;;;25.11;56.05;101399.81;4996117;28;20038;-79
2022/07/31 10:53:24;;;;;;;3.97;3.55;;;;;;;25.28;54.90;101394.31;4990227;28;20030;-78
2022/07/31 10:56:02;;;;;;;5.57;3.63;;;;;;;25.49;53.79;101401.25;4970417;28;20029;-78
2022/07/31 10:58:29;;;;;;;5.88;3.70;;;;;;;25.77;52.46;101389.16;4996105;28;20390;-76
2022/07/31 11:01:05;;;;;;;4.05;3.58;;;;;;;26.58;52.12;101387.66;4979452;28;20116;-78
2022/07/31 11:03:38;;;;;;;4.85;3.75;;;;;;;27.87;48.26;101384.94;4976690;28;20069;-78
2022/07/31 11:06:03;;;;;;;;;;;;;;;28.91;47.82;101369.00;4987057;28;20029;-78
2022/07/31 11:08:52;;;;;;;3.65;3.30;;;;;;;28.81;46.20;101371.16;4978305;28;19913;-78
2022/07/31 11:11:31;;;;;;;4.53;3.45;;;;;;;28.25;47.12;101374.97;4971292;28;20026;-78
2022/07/31 11:13:58;;;;;;;4.35;3.30;;;;;;;27.53;47.09;101372.38;4978854;28;20932;-77
2022/07/31 11:16:23;;;;;;;4.55;3.90;;;;;;;26.87;48.94;101381.69;4986450;28;20042;-78
2022/07/31 11:19:08;;;;;;;4.88;3.90;;;;;;;26.49;50.60;101378.63;4976743;28;20027;-77
2022/07/31 11:21:36;;;;;;;5.40;3.75;;;;;;;26.02;51.08;101371.00;4992064;28;20031;-79